F/V Jimorhan — FGD5815 — position and weather

sailwx.info

Track history (hours):
 
Tides and Currents Weather Stations Pressure Air Temp Water Temp Dewpoint Dewpoint Depression Visibility Wind Speed Wind Dir Waves Ship Positions

F/V Jimorhan

Last reported at 2017-Sep-05 22:15 UTC. Time now 2017-Sep-25 19:07 UTC.
Position N 47°53' W 004°49'.
Warning: this ship's position is 19 days out of date.

Length 19 m.

Type: Fishing. MMSI: 227573440.

Date/timePositionNaut miles runAvg speedWind from/ knotsBaromVisibWave heightAir tempDewpointWater temp
2017-Sep-05 22:15N 47°53' W 004°49'4 4.6
2017-Sep-05 21:29N 47°55' W 004°44'4 8.8
2017-Sep-05 21:00N 47°59' W 004°44'5 9.5
2017-Sep-05 20:31N 48°04' W 004°46'4 8.7
2017-Sep-05 20:00N 48°06' W 004°40'1310.6
2017-Sep-05 18:48N 48°07' W 004°21'1 5.0
2017-Sep-05 18:30N 48°06' W 004°19'0 0.0
2017-Sep-05 01:59N 48°06' W 004°19'4 8.8
2017-Sep-05 01:30N 48°08' W 004°25'611.0
2017-Sep-05 01:00N 48°09' W 004°33'510.9
2017-Sep-05 00:31N 48°11' W 004°41'510.6
2017-Sep-05 00:00N 48°13' W 004°48'6 9.4
2017-Sep-04 23:24N 48°14' W 004°56'5 2.8
2017-Sep-04 21:48N 48°14' W 005°03'2 3.9
2017-Sep-04 21:20N 48°15' W 005°00'1 2.5
2017-Sep-04 20:58N 48°16' W 005°01'4 8.9
2017-Sep-04 20:30N 48°18' W 004°56'4 8.3
2017-Sep-04 20:00N 48°15' W 004°52'3 5.3
2017-Sep-04 19:30N 48°13' W 004°49'0 0.3
2017-Sep-04 19:01N 48°14' W 004°49'1 1.1
2017-Sep-04 18:30N 48°14' W 004°49'5 9.2
2017-Sep-04 18:00N 48°12' W 004°43'510.6
2017-Sep-04 17:30N 48°10' W 004°35'610.8
2017-Sep-04 16:58N 48°08' W 004°27'610.2
2017-Sep-04 16:25N 48°06' W 004°19'0 0.6
2017-Sep-04 16:00N 48°06' W 004°20'0 0.0
2017-Sep-04 03:56N 48°06' W 004°19'0 0.4
2017-Sep-04 03:30N 48°06' W 004°19'0 0.0
2017-Sep-04 03:00N 48°06' W 004°19'0 0.0
2017-Sep-04 02:31N 48°06' W 004°20'1 1.3
2017-Sep-04 02:01N 48°07' W 004°20'510.4
2017-Sep-04 01:31N 48°08' W 004°27'510.7
2017-Sep-04 01:00N 48°09' W 004°35'510.6
2017-Sep-04 00:30N 48°10' W 004°43'610.7
2017-Sep-03 23:59N 48°11' W 004°51'4 7.7
2017-Sep-03 23:30N 48°12' W 004°57'1 1.9
2017-Sep-03 23:00N 48°13' W 004°56'0 0.6
2017-Sep-03 22:30N 48°12' W 004°57'1 2.2
2017-Sep-03 22:00N 48°12' W 004°55'4 8.6
2017-Sep-03 21:31N 48°11' W 004°49'510.5
2017-Sep-03 21:00N 48°09' W 004°42'510.4
2017-Sep-03 20:31N 48°09' W 004°34'510.1
2017-Sep-03 20:00N 48°11' W 004°27'1 1.8
2017-Sep-03 19:30N 48°11' W 004°26'2 3.4
2017-Sep-03 19:01N 48°09' W 004°25'5 9.1
2017-Sep-03 18:30N 48°06' W 004°19'1 1.1
2017-Sep-03 18:00N 48°06' W 004°20'  
2017-Sep-01 04:41N 48°06' W 004°20'0 0.0
2017-Sep-01 04:30N 48°06' W 004°20'0 0.0
2017-Sep-01 03:58N 48°06' W 004°20'0 0.0
2017-Sep-01 03:30N 48°06' W 004°20'0 0.0
2017-Sep-01 03:01N 48°06' W 004°20'3 5.4
2017-Sep-01 02:31N 48°07' W 004°23'2 4.7
2017-Sep-01 02:00N 48°08' W 004°26'1 1.4
2017-Sep-01 01:31N 48°09' W 004°26'1 1.4
2017-Sep-01 01:01N 48°08' W 004°25'610.4
2017-Sep-01 00:29N 48°07' W 004°33'511.2
2017-Sep-01 00:00N 48°07' W 004°41'4 7.6
2017-Aug-31 23:31N 48°07' W 004°47'15 8.1
2017-Aug-31 21:43N 48°13' W 005°07'5 5.6
2017-Aug-31 20:51N 48°16' W 005°01'3 7.3
2017-Aug-31 20:30N 48°15' W 004°58'2 2.9
2017-Aug-31 19:43N 48°13' W 004°55'0 0.3
2017-Aug-31 19:31N 48°13' W 004°55'4 7.7
2017-Aug-31 19:00N 48°12' W 004°50'5 9.1
2017-Aug-31 18:30N 48°11' W 004°43'5 9.1
2017-Aug-31 17:54N 48°10' W 004°35'11 9.0
2017-Aug-31 16:43N 48°06' W 004°20'1 3.1
2017-Aug-31 16:30N 48°06' W 004°19'0 0.0
2017-Aug-31 06:08N 48°06' W 004°19'0 1.1
2017-Aug-31 05:58N 48°06' W 004°19'0 0.0
2017-Aug-31 05:29N 48°06' W 004°19'0 0.0
2017-Aug-31 05:00N 48°06' W 004°19'0 0.0
2017-Aug-31 04:30N 48°06' W 004°19'0 0.0
2017-Aug-31 04:00N 48°06' W 004°19'0 0.0
2017-Aug-31 03:30N 48°06' W 004°19'0 0.0
2017-Aug-31 03:00N 48°06' W 004°19'0 0.0
2017-Aug-31 02:30N 48°06' W 004°19'0 0.0
2017-Aug-31 02:00N 48°06' W 004°19'4 8.9
2017-Aug-31 01:30N 48°08' W 004°26'510.0
2017-Aug-31 00:59N 48°09' W 004°33'510.0
2017-Aug-31 00:30N 48°10' W 004°40'510.1
2017-Aug-31 00:00N 48°12' W 004°47'10 5.6
2017-Aug-30 22:10N 48°15' W 005°02'2 6.9
2017-Aug-30 21:53N 48°14' W 005°03'3 3.7
2017-Aug-30 21:09N 48°11' W 005°04'3 2.2
2017-Aug-30 19:53N 48°09' W 005°00'3 7.2
2017-Aug-30 19:29N 48°09' W 004°56'5 9.5
2017-Aug-30 19:00N 48°09' W 004°49'5 9.6
2017-Aug-30 18:30N 48°08' W 004°42'5 9.5
2017-Aug-30 17:58N 48°08' W 004°34'6 9.3
2017-Aug-30 17:19N 48°07' W 004°25'4 9.6
2017-Aug-30 16:53N 48°06' W 004°19'0 0.0
2017-Aug-30 01:09N 48°06' W 004°19'0 1.9
2017-Aug-30 01:00N 48°06' W 004°19'510.2
2017-Aug-30 00:30N 48°08' W 004°26'510.1
2017-Aug-30 00:00N 48°09' W 004°34'5 9.8
2017-Aug-29 23:31N 48°13' W 004°38'510.0
2017-Aug-29 23:01N 48°18' W 004°41'1 1.2
2017-Aug-29 22:30N 48°18' W 004°41'0 0.5
2017-Aug-29 22:01N 48°18' W 004°42'0 0.3
2017-Aug-29 21:31N 48°19' W 004°41'0 0.5
2017-Aug-29 21:01N 48°18' W 004°41'0 0.9
2017-Aug-29 20:31N 48°18' W 004°42'1 1.7
2017-Aug-29 20:01N 48°17' W 004°42'1 1.2
2017-Aug-29 19:31N 48°18' W 004°42'1 2.6
2017-Aug-29 19:01N 48°17' W 004°44'4 8.6
2017-Aug-29 18:30N 48°14' W 004°39'6 8.9
2017-Aug-29 17:48N 48°09' W 004°33'9 9.0
2017-Aug-29 16:48N 48°07' W 004°20'1 0.1
2017-Aug-29 03:12N 48°06' W 004°19'0 0.0
2017-Aug-29 03:01N 48°06' W 004°19'0 0.5
2017-Aug-29 02:29N 48°06' W 004°19'510.2
2017-Aug-29 02:00N 48°07' W 004°26'510.2
2017-Aug-29 01:31N 48°09' W 004°33'5 9.9
2017-Aug-29 01:00N 48°10' W 004°41'510.4
2017-Aug-29 00:30N 48°13' W 004°48'710.2
2017-Aug-28 23:49N 48°17' W 004°56'1 1.8
2017-Aug-28 23:27N 48°18' W 004°56'0 1.0
2017-Aug-28 23:00N 48°18' W 004°55'3 5.3
2017-Aug-28 22:30N 48°18' W 004°51'6 5.1
2017-Aug-28 21:25N 48°17' W 004°59'1 0.6
2017-Aug-28 20:34N 48°17' W 005°00'1 4.8
2017-Aug-28 20:25N 48°18' W 004°59'3 5.2
2017-Aug-28 19:55N 48°17' W 004°56'4 9.8
2017-Aug-28 19:31N 48°16' W 004°50'510.8
2017-Aug-28 19:00N 48°12' W 004°44'1710.1
2017-Aug-28 17:19N 48°06' W 004°20'0 1.5
2017-Aug-28 17:00N 48°06' W 004°19'0 0.0
2017-Aug-28 06:40N 48°06' W 004°19'0 0.8
2017-Aug-28 06:30N 48°06' W 004°19'0 0.0
2017-Aug-28 06:00N 48°06' W 004°19'0 0.0
2017-Aug-28 05:30N 48°06' W 004°19'0 0.0
2017-Aug-28 05:00N 48°06' W 004°19'0 0.0
2017-Aug-28 04:30N 48°06' W 004°19'0 0.0
2017-Aug-28 03:58N 48°06' W 004°19'0 0.5
2017-Aug-28 03:30N 48°06' W 004°19'510.5
2017-Aug-28 03:00N 48°08' W 004°27'510.5
2017-Aug-28 02:30N 48°09' W 004°34'510.1
2017-Aug-28 02:01N 48°11' W 004°41'510.2
2017-Aug-28 01:31N 48°14' W 004°47'4 8.5
2017-Aug-28 01:00N 48°17' W 004°52'0 0.6
2017-Aug-28 00:31N 48°17' W 004°51'2 2.3
2017-Aug-27 23:43N 48°18' W 004°54'0 0.1
2017-Aug-27 23:19N 48°18' W 004°54'1 0.9
2017-Aug-27 22:18N 48°18' W 004°55'7 3.0
2017-Aug-27 20:06N 48°11' W 004°56'1 9.9
2017-Aug-27 20:00N 48°11' W 004°55'5 9.5
2017-Aug-27 19:30N 48°08' W 004°49'510.0
2017-Aug-27 19:00N 48°04' W 004°46'  
Track history (hours):
 
Tides and Currents Weather Stations Pressure Air Temp Water Temp Dewpoint Dewpoint Depression Visibility Wind Speed Wind Dir Waves Ship Positions

F/V Jimorhan

Last reported at 2017-Sep-05 22:15 UTC. Time now 2017-Sep-25 19:07 UTC.
Position N 47°53' W 004°49'.
Warning: this ship's position is 19 days out of date.

Length 19 m.

Type: Fishing. MMSI: 227573440.

Date/timePositionNaut miles runAvg speedWind from/ knotsBaromVisibWave heightAir tempDewpointWater temp
2017-Sep-05 22:15N 47°53' W 004°49'4 4.6
2017-Sep-05 21:29N 47°55' W 004°44'4 8.8
2017-Sep-05 21:00N 47°59' W 004°44'5 9.5
2017-Sep-05 20:31N 48°04' W 004°46'4 8.7
2017-Sep-05 20:00N 48°06' W 004°40'1310.6
2017-Sep-05 18:48N 48°07' W 004°21'1 5.0
2017-Sep-05 18:30N 48°06' W 004°19'0 0.0
2017-Sep-05 01:59N 48°06' W 004°19'4 8.8
2017-Sep-05 01:30N 48°08' W 004°25'611.0
2017-Sep-05 01:00N 48°09' W 004°33'510.9
2017-Sep-05 00:31N 48°11' W 004°41'510.6
2017-Sep-05 00:00N 48°13' W 004°48'6 9.4
2017-Sep-04 23:24N 48°14' W 004°56'5 2.8
2017-Sep-04 21:48N 48°14' W 005°03'2 3.9
2017-Sep-04 21:20N 48°15' W 005°00'1 2.5
2017-Sep-04 20:58N 48°16' W 005°01'4 8.9
2017-Sep-04 20:30N 48°18' W 004°56'4 8.3
2017-Sep-04 20:00N 48°15' W 004°52'3 5.3
2017-Sep-04 19:30N 48°13' W 004°49'0 0.3
2017-Sep-04 19:01N 48°14' W 004°49'1 1.1
2017-Sep-04 18:30N 48°14' W 004°49'5 9.2
2017-Sep-04 18:00N 48°12' W 004°43'510.6
2017-Sep-04 17:30N 48°10' W 004°35'610.8
2017-Sep-04 16:58N 48°08' W 004°27'610.2
2017-Sep-04 16:25N 48°06' W 004°19'0 0.6
2017-Sep-04 16:00N 48°06' W 004°20'0 0.0
2017-Sep-04 03:56N 48°06' W 004°19'0 0.4
2017-Sep-04 03:30N 48°06' W 004°19'0 0.0
2017-Sep-04 03:00N 48°06' W 004°19'0 0.0
2017-Sep-04 02:31N 48°06' W 004°20'1 1.3
2017-Sep-04 02:01N 48°07' W 004°20'510.4
2017-Sep-04 01:31N 48°08' W 004°27'510.7
2017-Sep-04 01:00N 48°09' W 004°35'510.6
2017-Sep-04 00:30N 48°10' W 004°43'610.7
2017-Sep-03 23:59N 48°11' W 004°51'4 7.7
2017-Sep-03 23:30N 48°12' W 004°57'1 1.9
2017-Sep-03 23:00N 48°13' W 004°56'0 0.6
2017-Sep-03 22:30N 48°12' W 004°57'1 2.2
2017-Sep-03 22:00N 48°12' W 004°55'4 8.6
2017-Sep-03 21:31N 48°11' W 004°49'510.5
2017-Sep-03 21:00N 48°09' W 004°42'510.4
2017-Sep-03 20:31N 48°09' W 004°34'510.1
2017-Sep-03 20:00N 48°11' W 004°27'1 1.8
2017-Sep-03 19:30N 48°11' W 004°26'2 3.4
2017-Sep-03 19:01N 48°09' W 004°25'5 9.1
2017-Sep-03 18:30N 48°06' W 004°19'1 1.1
2017-Sep-03 18:00N 48°06' W 004°20'  
2017-Sep-01 04:41N 48°06' W 004°20'0 0.0
2017-Sep-01 04:30N 48°06' W 004°20'0 0.0
2017-Sep-01 03:58N 48°06' W 004°20'0 0.0
2017-Sep-01 03:30N 48°06' W 004°20'0 0.0
2017-Sep-01 03:01N 48°06' W 004°20'3 5.4
2017-Sep-01 02:31N 48°07' W 004°23'2 4.7
2017-Sep-01 02:00N 48°08' W 004°26'1 1.4
2017-Sep-01 01:31N 48°09' W 004°26'1 1.4
2017-Sep-01 01:01N 48°08' W 004°25'610.4
2017-Sep-01 00:29N 48°07' W 004°33'511.2
2017-Sep-01 00:00N 48°07' W 004°41'4 7.6
2017-Aug-31 23:31N 48°07' W 004°47'15 8.1
2017-Aug-31 21:43N 48°13' W 005°07'5 5.6
2017-Aug-31 20:51N 48°16' W 005°01'3 7.3
2017-Aug-31 20:30N 48°15' W 004°58'2 2.9
2017-Aug-31 19:43N 48°13' W 004°55'0 0.3
2017-Aug-31 19:31N 48°13' W 004°55'4 7.7
2017-Aug-31 19:00N 48°12' W 004°50'5 9.1
2017-Aug-31 18:30N 48°11' W 004°43'5 9.1
2017-Aug-31 17:54N 48°10' W 004°35'11 9.0
2017-Aug-31 16:43N 48°06' W 004°20'1 3.1
2017-Aug-31 16:30N 48°06' W 004°19'0 0.0
2017-Aug-31 06:08N 48°06' W 004°19'0 1.1
2017-Aug-31 05:58N 48°06' W 004°19'0 0.0
2017-Aug-31 05:29N 48°06' W 004°19'0 0.0
2017-Aug-31 05:00N 48°06' W 004°19'0 0.0
2017-Aug-31 04:30N 48°06' W 004°19'0 0.0
2017-Aug-31 04:00N 48°06' W 004°19'0 0.0
2017-Aug-31 03:30N 48°06' W 004°19'0 0.0
2017-Aug-31 03:00N 48°06' W 004°19'0 0.0
2017-Aug-31 02:30N 48°06' W 004°19'0 0.0
2017-Aug-31 02:00N 48°06' W 004°19'4 8.9
2017-Aug-31 01:30N 48°08' W 004°26'510.0
2017-Aug-31 00:59N 48°09' W 004°33'510.0
2017-Aug-31 00:30N 48°10' W 004°40'510.1
2017-Aug-31 00:00N 48°12' W 004°47'10 5.6
2017-Aug-30 22:10N 48°15' W 005°02'2 6.9
2017-Aug-30 21:53N 48°14' W 005°03'3 3.7
2017-Aug-30 21:09N 48°11' W 005°04'3 2.2
2017-Aug-30 19:53N 48°09' W 005°00'3 7.2
2017-Aug-30 19:29N 48°09' W 004°56'5 9.5
2017-Aug-30 19:00N 48°09' W 004°49'5 9.6
2017-Aug-30 18:30N 48°08' W 004°42'5 9.5
2017-Aug-30 17:58N 48°08' W 004°34'6 9.3
2017-Aug-30 17:19N 48°07' W 004°25'4 9.6
2017-Aug-30 16:53N 48°06' W 004°19'0 0.0
2017-Aug-30 01:09N 48°06' W 004°19'0 1.9
2017-Aug-30 01:00N 48°06' W 004°19'510.2
2017-Aug-30 00:30N 48°08' W 004°26'510.1
2017-Aug-30 00:00N 48°09' W 004°34'5 9.8
2017-Aug-29 23:31N 48°13' W 004°38'510.0
2017-Aug-29 23:01N 48°18' W 004°41'1 1.2
2017-Aug-29 22:30N 48°18' W 004°41'0 0.5
2017-Aug-29 22:01N 48°18' W 004°42'0 0.3
2017-Aug-29 21:31N 48°19' W 004°41'0 0.5
2017-Aug-29 21:01N 48°18' W 004°41'0 0.9
2017-Aug-29 20:31N 48°18' W 004°42'1 1.7
2017-Aug-29 20:01N 48°17' W 004°42'1 1.2
2017-Aug-29 19:31N 48°18' W 004°42'1 2.6
2017-Aug-29 19:01N 48°17' W 004°44'4 8.6
2017-Aug-29 18:30N 48°14' W 004°39'6 8.9
2017-Aug-29 17:48N 48°09' W 004°33'9 9.0
2017-Aug-29 16:48N 48°07' W 004°20'1 0.1
2017-Aug-29 03:12N 48°06' W 004°19'0 0.0
2017-Aug-29 03:01N 48°06' W 004°19'0 0.5
2017-Aug-29 02:29N 48°06' W 004°19'510.2
2017-Aug-29 02:00N 48°07' W 004°26'510.2
2017-Aug-29 01:31N 48°09' W 004°33'5 9.9
2017-Aug-29 01:00N 48°10' W 004°41'510.4
2017-Aug-29 00:30N 48°13' W 004°48'710.2
2017-Aug-28 23:49N 48°17' W 004°56'1 1.8
2017-Aug-28 23:27N 48°18' W 004°56'0 1.0
2017-Aug-28 23:00N 48°18' W 004°55'3 5.3
2017-Aug-28 22:30N 48°18' W 004°51'6 5.1
2017-Aug-28 21:25N 48°17' W 004°59'1 0.6
2017-Aug-28 20:34N 48°17' W 005°00'1 4.8
2017-Aug-28 20:25N 48°18' W 004°59'3 5.2
2017-Aug-28 19:55N 48°17' W 004°56'4 9.8
2017-Aug-28 19:31N 48°16' W 004°50'510.8
2017-Aug-28 19:00N 48°12' W 004°44'1710.1
2017-Aug-28 17:19N 48°06' W 004°20'0 1.5
2017-Aug-28 17:00N 48°06' W 004°19'0 0.0
2017-Aug-28 06:40N 48°06' W 004°19'0 0.8
2017-Aug-28 06:30N 48°06' W 004°19'0 0.0
2017-Aug-28 06:00N 48°06' W 004°19'0 0.0
2017-Aug-28 05:30N 48°06' W 004°19'0 0.0
2017-Aug-28 05:00N 48°06' W 004°19'0 0.0
2017-Aug-28 04:30N 48°06' W 004°19'0 0.0
2017-Aug-28 03:58N 48°06' W 004°19'0 0.5
2017-Aug-28 03:30N 48°06' W 004°19'510.5
2017-Aug-28 03:00N 48°08' W 004°27'510.5
2017-Aug-28 02:30N 48°09' W 004°34'510.1
2017-Aug-28 02:01N 48°11' W 004°41'510.2
2017-Aug-28 01:31N 48°14' W 004°47'4 8.5
2017-Aug-28 01:00N 48°17' W 004°52'0 0.6
2017-Aug-28 00:31N 48°17' W 004°51'2 2.3
2017-Aug-27 23:43N 48°18' W 004°54'0 0.1
2017-Aug-27 23:19N 48°18' W 004°54'1 0.9
2017-Aug-27 22:18N 48°18' W 004°55'7 3.0
2017-Aug-27 20:06N 48°11' W 004°56'1 9.9
2017-Aug-27 20:00N 48°11' W 004°55'5 9.5
2017-Aug-27 19:30N 48°08' W 004°49'510.0
2017-Aug-27 19:00N 48°04' W 004°46'  

Dump ship's entire track history